Terminal Aerodrome Forecast
Issued by NWS Nashville, TN

Current Version | Previous Version | Text Only | Print | Product List | Glossary Off
Versions: 1 2 3 4 5 6 7 8 9 10 11 12

819
FTUS44 KOHX 291120
TAFCSV
TAF
KCSV 291120Z 2912/3012 00000KT P6SM SKC
     FM291500 19010G18KT P6SM BKN050
     FM300100 17009KT P6SM BKN100
     FM300600 18008KT P6SM OVC020
     FM301000 17007KT P6SM OVC007=

USA.gov is the U.S. government's official web portal to all federal, state and local government web resources and services.